Airfield :
LOGIN :

Register | Disclaimer

   EN    FR    IT 

 










Legend :    VFR   Marginal VFR   IFR   Intensive IFR   Very Intensive IFR
Visi :
Ceiling :
>= 8 km
>= 3000ft
5 to 8 km
1000 to 3000 ft
1500m to 5 km
500 to 1000 ft
800 to 1500m
200 to 500 ft
< 800m
< 200 ft
Symbols :   Thunderstorms  Fog  Heavy snow  Heavy precipitations  Wind > 20 kt
SIGMETs :     Misc.  Thunderstorms  Icing  Turbulence  Mountain Waves  Volcanic Ashes






- Airport Elevation : 11 ft
- IATA code : MJV


LELC - Murcia San Javier

CURRENT METAR :
  • 260430Z AUTO 04008KT 010V070 9000 NSC 14/12 Q1020

EXPIRED METARs :
  • 260400Z AUTO 06007KT 010V110 CAVOK 14/12 Q1020
  • 260330Z AUTO 07008KT 040V120 CAVOK 15/12 Q1019
  • 260300Z AUTO 26004KT CAVOK 15/10 Q1019
  • 260230Z AUTO 31005KT CAVOK 17/11 Q1018
  • 260200Z AUTO 30005KT CAVOK 17/11 Q1018

TAF TAF LELC
Valid from the 26 at 00:00 until the 27 at 00:00 UTC


252300Z 2600/2624 VRB03KT 9999 FEW035 TX19/2612Z TN10/2606Z
TEMPO 2615/2618 21010KT



MET'MAP, your aeronautical weather chart ! - Copyright ORBIFLY December 2007 - Disclaimer

ORBIFLY MET'MAP TEAM :

Programming & Development : Alexandra Zaïnal
Concept & original design : Baudouin d'Aumeries
Assistance for programming : Marc-Olivier Méhu
Technical & hardware support : Manuel Goepfert

Contact : metmap@orbifly.com




SOURCES & CREDITS :

   NOAA